Lark Harbour, Canada
Current Conditions -  °F | °C
As of 10:00 AM on Thursday 23 Oct 2014 (Local Time) from CYJT Reporting Station
Broken Clouds Broken Clouds  
Wind Chill: 38°   Ceiling: 22000
Heat Index: 43°   Visibility: 15mi
Dew Point: 37°   Wind: 8mph
Humidity: 81%   Direction: 50°NE
Pressure: 30.36"   Gusts: NA
Location:  49.1°N, 58.37°W
Report Text: CYJT 231200Z 05007KT 15SM FEW025 BKN220 06/03 A3036 RMK SC1CI4 SLP282
Loading
Personal Weather Stations






























Interactive Weather Map
Tropical Storm Tracking
New forecast layout! Learn more

10-Day Weather Forecast

Advertisements
Track Severe Weather on mobile